Wednesday, February 10, 2016, 1:38 AM EST

KFDK, Frederick, Frederick Municipal Airport

Location: Frederick, MD, United States Lat: 39.417
Local Time: 1:38 AM EST ( 6:38 GMT) Lon: -77.374
Time Zone: US/Eastern Elev: 301 ft

Show me the last for .
Show Decoded

2016-02-10 01:10 METAR KFDK 100610Z AUTO 26006KT 10SM SCT017 OVC060 M02/M03 A2971 RMK AO2 =
2016-02-10 00:50 METAR KFDK 100550Z AUTO 27011G15KT 250V310 10SM SCT017 OVC060 M02/M03 A2972 RMK
                 AO2 =
2016-02-10 00:30 METAR KFDK 100530Z AUTO 27006G14KT 10SM SCT019 BKN060 OVC070 M02/M03 A2972 RMK
                 AO2 =
2016-02-10 00:10 METAR KFDK 100510Z AUTO 25010KT 210V270 10SM SCT019 BKN060 OVC070 M01/M03 A2972
                 RMK AO2 LTG DSNT E =
2016-02-09 23:50 METAR KFDK 100450Z AUTO 26006KT 10SM SCT019 SCT060 OVC070 M01/M03 A2972 RMK AO2
                 =
2016-02-09 23:30 METAR KFDK 100430Z AUTO 27011KT 230V320 10SM SCT021 BKN060 OVC070 M01/M03 A2972
                 RMK AO2 =
2016-02-09 23:10 METAR KFDK 100410Z AUTO 26005G16KT 10SM SCT021 OVC049 M01/M03 A2972 RMK AO2 =
2016-02-09 22:50 METAR KFDK 100350Z AUTO 25009G22KT 10SM SCT021 OVC049 M01/M03 A2972 RMK AO2 =
2016-02-09 22:30 METAR KFDK 100330Z AUTO 26013G17KT 10SM SCT021 OVC049 M01/M03 A2972 RMK AO2 LTG
                 DSNT E =
2016-02-09 22:10 METAR KFDK 100310Z AUTO 26009KT 10SM SCT021 OVC049 M01/M03 A2972 RMK AO2 =
2016-02-09 21:50 METAR KFDK 100250Z AUTO 27009KT 10SM SCT023 OVC049 M01/M03 A2971 RMK AO2 =
2016-02-09 21:30 METAR KFDK 100230Z AUTO 28011G16KT 10SM SCT023 OVC049 00/M03 A2971 RMK AO2 =
2016-02-09 21:10 METAR KFDK 100210Z AUTO 26012G16KT 10SM SCT020 SCT028 OVC049 00/M03 A2971 RMK
                 AO2 =
2016-02-09 20:50 METAR KFDK 100150Z AUTO 28009KT 10SM BKN020 BKN024 OVC049 00/M02 A2970 RMK AO2
                 LTG DSNT E =
2016-02-09 20:30 METAR KFDK 100130Z AUTO 26007G16KT 10SM BKN020 OVC049 00/M02 A2970 RMK AO2 =
2016-02-09 20:10 METAR KFDK 100110Z AUTO 28008G14KT 10SM BKN020 OVC049 00/M02 A2969 RMK AO2 LTG
                 DSNT E =
2016-02-09 19:50 METAR KFDK 100050Z 31009G15KT 10SM BKN020 OVC049 00/M02 A2969 =
2016-02-09 19:30 METAR KFDK 100030Z AUTO 28009G19KT 10SM SCT020 OVC047 00/M02 A2969 RMK AO2 =
2016-02-09 18:47 METAR KFDK 092347Z 29010G17KT 10SM BKN018 OVC045 00/M02 A2968 =
2016-02-09 17:52 METAR KFDK 092252Z 29008KT 10SM BKN018 OVC050 02/M02 A2966 =
2016-02-09 16:45 METAR KFDK 092145Z 29012KT 7SM BKN017 OVC021 01/M01 A2963 =
2016-02-09 15:50 METAR KFDK 092050Z 29004KT 7SM BKN019 BKN035 OVC049 01/M01 A2960 =
2016-02-09 14:50 METAR KFDK 091950Z 29009G14KT 5SM SCT015 BKN044 OVC050 01/M01 A2959 =
2016-02-09 14:15 METAR KFDK 091915Z 28006KT 2 1/2SM -RA BR BKN009 OVC039 02/01 A2958 =
2016-02-09 13:50 METAR KFDK 091850Z 32007KT 5SM SCT006 SCT016 OVC047 02/01 A2958 =
2016-02-09 12:51 METAR KFDK 091751Z 00000KT 1 1/2SM SN OVC004 01/01 A2958 =
2016-02-09 11:53 METAR KFDK 091653Z 00000KT 1 3/4SM SN OVC004 01/01 A2959 =
2016-02-09 10:53 METAR KFDK 091553Z 00000KT 3/4SM SN OVC003 01/01 A2961 =
2016-02-09 09:55 METAR KFDK 091455Z 00000KT 1SM SN OVC003 01/01 A2961 =
2016-02-09 08:55 METAR KFDK 091355Z 00000KT 1/2SM OVC003 01/01 A2961 =
2016-02-09 07:48 METAR KFDK 091248Z 00000KT 1/2SM OVC003 00/00 A2961 =
2016-02-09 06:50 METAR KFDK 091150Z 00000KT 3/4SM SN OVC003 01/01 A2960 =
2016-02-09 05:20 METAR KFDK 091020Z AUTO 00000KT 1 1/2SM -SN OVC007 00/00 A2959 RMK AO2 LTG DSNT
                 SE =
2016-02-09 05:10 METAR KFDK 091010Z AUTO 00000KT 1 1/2SM -SN OVC007 00/00 A2959 RMK AO2 =
2016-02-09 04:45 METAR KFDK 090945Z AUTO 00000KT 2 1/2SM UP OVC007 00/00 A2959 RMK AO2 P0001 =
2016-02-09 04:25 METAR KFDK 090925Z AUTO 00000KT 3SM -RA OVC007 01/01 A2959 RMK AO2 =
2016-02-09 04:05 METAR KFDK 090905Z AUTO 00000KT 4SM -RA BKN007 OVC015 01/01 A2959 RMK AO2 =
2016-02-09 03:45 METAR KFDK 090845Z AUTO 00000KT 5SM -DZ SCT009 OVC015 01/01 A2960 RMK AO2 P0002
                 =
2016-02-09 03:25 METAR KFDK 090825Z AUTO 00000KT 4SM RA BKN009 OVC013 01/01 A2961 RMK AO2 P0002 =
2016-02-09 03:05 METAR KFDK 090805Z AUTO 00000KT 4SM -RA OVC009 01/01 A2961 RMK AO2 P0001 =
2016-02-09 02:45 METAR KFDK 090745Z AUTO 00000KT 5SM -RA OVC011 01/01 A2962 RMK AO2 P0001 =
2016-02-09 02:25 METAR KFDK 090725Z AUTO 00000KT 5SM -RA OVC011 01/01 A2962 RMK AO2 P0001 =
2016-02-09 02:05 METAR KFDK 090705Z AUTO 14003KT 5SM -RA OVC009 02/02 A2963 RMK AO2 =
2016-02-09 01:45 METAR KFDK 090645Z AUTO 14004KT 7SM -RA OVC009 02/02 A2964 RMK AO2 =

Support USWX by starting your Amazon purchase here.